Time;durP1;ratioP1;P1;durP2;ratioP2;P2;SDS_P1;SDS_P2;PMS_P1;PMS_P2;Temp;Humidity;BMP_temperature;BMP_pressure;BME280_temperature;BME280_humidity;BME280_pressure;Samples;Min_cycle;Max_cycle;Signal;HPM_P1;HPM_P2
2023/03/31 00:02:22;;;;;;;;;;;;;;;;;;5134296;27;1990;-40
2023/03/31 00:04:52;;;;;;;;;;;;;;;;;;5134374;27;2173;-41
2023/03/31 00:07:23;;;;;;;;;;;;;;;;;;5134336;27;1881;-40
2023/03/31 00:09:54;;;;;;;;;;;;;;;;;;5133994;27;1844;-40
2023/03/31 00:12:32;;;;;;;;;;;;;;;;;;5134560;27;1939;-44
2023/03/31 00:15:00;;;;;;;;;;;;;;;;;;5134075;27;2045;-40
2023/03/31 00:17:31;;;;;;;;;;;;;;;;;;5134011;27;2093;-40
2023/03/31 00:20:04;;;;;;;;;;;;;;;;;;5134032;27;2117;-40
2023/03/31 00:22:31;;;;;;;;;;;;;;;;;;5134036;27;1894;-41
2023/03/31 00:24:59;;;;;;;;;;;;;;;;;;5133621;27;2131;-40
2023/03/31 00:27:27;;;;;;;;;;;;;;;;;;5133957;27;1907;-41
2023/03/31 00:29:54;;;;;;;;;;;;;;;;;;5115253;27;1830;-45
2023/03/31 00:32:21;;;;;;;;;;;;;;;;;;5133700;27;1988;-44
2023/03/31 00:34:51;;;;;;;;;;;;;;;;;;5133685;27;1974;-40
2023/03/31 00:37:18;;;;;;;;;;;;;;;;;;5133718;27;1939;-40
2023/03/31 00:39:45;;;;;;;;;;;;;;;;;;5133922;27;1964;-40
2023/03/31 00:42:13;;;;;;;;;;;;;;;;;;5133973;27;1759;-45
2023/03/31 00:44:59;;;;;;;;;;;;;;;;;;5133590;27;2046;-39
2023/03/31 00:47:28;;;;;;;;;;;;;;;;;;5133463;27;1938;-45
2023/03/31 00:49:56;;;;;;;;;;;;;;;;;;5115023;27;2098;-40
2023/03/31 00:52:26;;;;;;;;;;;;;;;;;;5133204;27;1870;-40
2023/03/31 00:54:56;;;;;;;;;;;;;;;;;;5114673;27;2577;-47
2023/03/31 00:57:24;;;;;;;;;;;;;;;;;;5152102;27;1976;-41
2023/03/31 00:59:55;;;;;;;;;;;;;;;;;;5153919;27;2021;-39
2023/03/31 01:02:25;;;;;;;;;;;;;;;;;;5154045;27;1846;-40
2023/03/31 01:05:00;;;;;;;;;;;;;;;;;;5135302;27;2128;-46
2023/03/31 01:07:36;;;;;;;;;;;;;;;;;;5153204;27;1945;-39
2023/03/31 01:10:04;;;;;;;;;;;;;;;;;;5153813;27;1900;-39
2023/03/31 01:12:32;;;;;;;;;;;;;;;;;;5153605;27;2131;-40
2023/03/31 01:15:02;;;;;;;;;;;;;;;;;;5153742;27;2094;-39
2023/03/31 01:17:29;;;;;;;;;;;;;;;;;;5153727;27;1722;-40
2023/03/31 01:20:18;;;;;;;;;;;;;;;;;;5153206;27;2060;-40
2023/03/31 01:22:48;;;;;;;;;;;;;;;;;;5153547;27;1941;-40
2023/03/31 01:25:26;;;;;;;;;;;;;;;;;;5153752;27;1978;-47
2023/03/31 01:27:54;;;;;;;;;;;;;;;;;;5153338;27;2151;-44
2023/03/31 01:30:24;;;;;;;;;;;;;;;;;;5153296;27;2117;-48
2023/03/31 01:32:57;;;;;;;;;;;;;;;;;;5153507;27;1910;-40
2023/03/31 01:35:24;;;;;;;;;;;;;;;;;;5153252;27;1980;-39
2023/03/31 01:37:57;;;;;;;;;;;;;;;;;;5153452;27;2024;-40
2023/03/31 01:40:24;;;;;;;;;;;;;;;;;;5153310;27;1995;-40
2023/03/31 01:42:52;;;;;;;;;;;;;;;;;;5134607;27;2341;-39
2023/03/31 01:45:25;;;;;;;;;;;;;;;;;;5153130;27;1918;-40
2023/03/31 01:48:11;;;;;;;;;;;;;;;;;;5153079;27;2202;-46
2023/03/31 01:50:47;;;;;;;;;;;;;;;;;;5153085;27;1946;-40
2023/03/31 01:53:17;;;;;;;;;;;;;;;;;;5153139;27;2057;-48
2023/03/31 01:55:56;;;;;;;;;;;;;;;;;;5129087;27;2097;-40
2023/03/31 01:58:26;;;;;;;;;;;;;;;;;;5113816;27;1412;-48
2023/03/31 02:01:02;;;;;;;;;;;;;;;;;;5132336;27;2033;-40
2023/03/31 02:03:33;;;;;;;;;;;;;;;;;;5132237;27;1989;-40
2023/03/31 02:06:08;;;;;;;;;;;;;;;;;;5113359;28;2546;-46
2023/03/31 02:08:38;;;;;;;;;;;;;;;;;;5132380;27;2043;-40
2023/03/31 02:11:06;;;;;;;;;;;;;;;;;;5113238;28;1995;-39
2023/03/31 02:13:36;;;;;;;;;;;;;;;;;;5132203;27;2201;-40
2023/03/31 02:16:05;;;;;;;;;;;;;;;;;;5131567;27;2318;-40
2023/03/31 02:18:36;;;;;;;;;;;;;;;;;;5113226;27;2280;-39
2023/03/31 02:21:06;;;;;;;;;;;;;;;;;;5131739;28;1722;-40
2023/03/31 02:23:36;;;;;;;;;;;;;;;;;;5131796;28;2176;-40
2023/03/31 02:26:07;;;;;;;;;;;;;;;;;;5132144;28;1985;-47
2023/03/31 02:28:35;;;;;;;;;;;;;;;;;;5130631;27;2097;-41
2023/03/31 02:31:12;;;;;;;;;;;;;;;;;;5134105;27;1893;-41
2023/03/31 02:33:40;;;;;;;;;;;;;;;;;;5152498;27;2056;-41
2023/03/31 02:36:07;;;;;;;;;;;;;;;;;;5146880;27;1905;-40
2023/03/31 02:38:38;;;;;;;;;;;;;;;;;;5113364;28;2069;-40
2023/03/31 02:41:06;;;;;;;;;;;;;;;;;;5113545;28;1931;-47
2023/03/31 02:43:33;;;;;;;;;;;;;;;;;;5131752;27;1800;-41
2023/03/31 02:46:01;;;;;;;;;;;;;;;;;;5131214;27;2035;-41
2023/03/31 02:48:48;;;;;;;;;;;;;;;;;;5113528;28;1980;-40
2023/03/31 02:51:42;;;;;;;;;;;;;;;;;;5131937;28;1878;-41
2023/03/31 02:54:09;;;;;;;;;;;;;;;;;;5108188;28;1887;-40
2023/03/31 02:56:55;;;;;;;;;;;;;;;;;;5123593;28;1909;-40
2023/03/31 02:59:33;;;;;;;;;;;;;;;;;;5131813;28;1998;-41
2023/03/31 03:02:09;;;;;;;;;;;;;;;;;;5112978;28;2048;-40
2023/03/31 03:04:52;;;;;;;;;;;;;;;;;;5131828;28;2065;-40
2023/03/31 03:07:29;;;;;;;;;;;;;;;;;;5124348;27;2124;-40
2023/03/31 03:10:00;;;;;;;;;;;;;;;;;;5133417;27;2015;-39
2023/03/31 03:12:28;;;;;;;;;;;;;;;;;;5152075;27;1857;-40
2023/03/31 03:15:00;;;;;;;;;;;;;;;;;;5151964;27;2007;-39
2023/03/31 03:17:31;;;;;;;;;;;;;;;;;;5133754;27;2014;-40
2023/03/31 03:20:00;;;;;;;;;;;;;;;;;;5152203;27;2064;-39
2023/03/31 03:22:27;;;;;;;;;;;;;;;;;;5152078;27;2057;-41
2023/03/31 03:24:54;;;;;;;;;;;;;;;;;;5152064;27;2137;-40
2023/03/31 03:27:21;;;;;;;;;;;;;;;;;;5132525;27;1979;-40
2023/03/31 03:29:49;;;;;;;;;;;;;;;;;;5131400;27;2128;-40
2023/03/31 03:32:16;;;;;;;;;;;;;;;;;;5133969;27;2137;-41
2023/03/31 03:34:43;;;;;;;;;;;;;;;;;;5103526;27;9671;-39
2023/03/31 03:37:10;;;;;;;;;;;;;;;;;;5134911;27;1906;-40
2023/03/31 03:39:37;;;;;;;;;;;;;;;;;;5134946;27;2109;-41
2023/03/31 03:42:05;;;;;;;;;;;;;;;;;;5135017;27;1817;-39
2023/03/31 03:44:32;;;;;;;;;;;;;;;;;;5134872;27;2093;-39
2023/03/31 03:46:59;;;;;;;;;;;;;;;;;;5134685;27;1941;-40
2023/03/31 03:49:26;;;;;;;;;;;;;;;;;;5134884;27;1974;-39
2023/03/31 03:51:54;;;;;;;;;;;;;;;;;;5134467;27;1828;-41
2023/03/31 03:54:21;;;;;;;;;;;;;;;;;;5134860;27;2053;-40
2023/03/31 03:56:48;;;;;;;;;;;;;;;;;;5136432;27;2292;-40
2023/03/31 03:59:15;;;;;;;;;;;;;;;;;;5155807;27;2141;-40
2023/03/31 04:01:42;;;;;;;;;;;;;;;;;;5155343;27;1989;-41
2023/03/31 04:04:10;;;;;;;;;;;;;;;;;;5155158;27;2068;-41
2023/03/31 04:06:37;;;;;;;;;;;;;;;;;;5154834;27;1666;-40
2023/03/31 04:09:05;;;;;;;;;;;;;;;;;;5154992;27;2057;-40
2023/03/31 04:11:32;;;;;;;;;;;;;;;;;;5155036;27;1970;-43
2023/03/31 04:13:59;;;;;;;;;;;;;;;;;;5155024;27;1791;-40
2023/03/31 04:16:27;;;;;;;;;;;;;;;;;;5155011;27;2173;-41
2023/03/31 04:18:58;;;;;;;;;;;;;;;;;;5154984;27;2124;-46
2023/03/31 04:21:25;;;;;;;;;;;;;;;;;;5154709;27;1971;-41
2023/03/31 04:24:03;;;;;;;;;;;;;;;;;;5154789;27;2125;-39
2023/03/31 04:26:41;;;;;;;;;;;;;;;;;;5154717;27;1944;-45
2023/03/31 04:29:15;;;;;;;;;;;;;;;;;;5154882;27;2005;-40
2023/03/31 04:31:42;;;;;;;;;;;;;;;;;;5154626;27;1977;-40
2023/03/31 04:34:12;;;;;;;;;;;;;;;;;;5154583;27;1938;-41
2023/03/31 04:36:41;;;;;;;;;;;;;;;;;;5154600;27;1910;-40
2023/03/31 04:39:11;;;;;;;;;;;;;;;;;;5154285;27;1981;-41
2023/03/31 04:41:38;;;;;;;;;;;;;;;;;;5154607;27;1956;-40
2023/03/31 04:44:06;;;;;;;;;;;;;;;;;;5153644;27;2079;-40
2023/03/31 04:46:34;;;;;;;;;;;;;;;;;;5154299;27;1976;-40
2023/03/31 04:49:01;;;;;;;;;;;;;;;;;;5154322;27;2076;-43
2023/03/31 04:51:29;;;;;;;;;;;;;;;;;;5154224;27;2098;-40
2023/03/31 04:53:56;;;;;;;;;;;;;;;;;;5154277;27;1456;-41
2023/03/31 04:56:23;;;;;;;;;;;;;;;;;;5143581;27;2020;-40
2023/03/31 04:58:50;;;;;;;;;;;;;;;;;;5133410;27;2067;-41
2023/03/31 05:01:17;;;;;;;;;;;;;;;;;;5133333;27;2048;-41
2023/03/31 05:03:46;;;;;;;;;;;;;;;;;;5133457;27;1905;-41
2023/03/31 05:06:14;;;;;;;;;;;;;;;;;;5133486;27;2072;-40
2023/03/31 05:08:42;;;;;;;;;;;;;;;;;;5133311;27;1943;-40
2023/03/31 05:11:10;;;;;;;;;;;;;;;;;;5133074;27;1885;-39
2023/03/31 05:13:37;;;;;;;;;;;;;;;;;;5132868;27;1991;-41
2023/03/31 05:16:08;;;;;;;;;;;;;;;;;;5132826;27;1980;-41
2023/03/31 05:18:36;;;;;;;;;;;;;;;;;;5132925;27;1897;-40
2023/03/31 05:21:13;;;;;;;;;;;;;;;;;;5133055;27;1948;-41
2023/03/31 05:23:41;;;;;;;;;;;;;;;;;;5132634;27;1783;-41
2023/03/31 05:26:09;;;;;;;;;;;;;;;;;;5132648;27;1986;-41
2023/03/31 05:28:37;;;;;;;;;;;;;;;;;;5143138;27;2085;-40
2023/03/31 05:31:05;;;;;;;;;;;;;;;;;;5153490;27;2184;-41
2023/03/31 05:33:32;;;;;;;;;;;;;;;;;;5153269;27;2056;-41
2023/03/31 05:36:00;;;;;;;;;;;;;;;;;;5153138;27;1983;-41
2023/03/31 05:38:28;;;;;;;;;;;;;;;;;;5153136;27;1923;-41
2023/03/31 05:40:55;;;;;;;;;;;;;;;;;;5153338;27;1996;-43
2023/03/31 05:43:23;;;;;;;;;;;;;;;;;;5153102;27;1837;-41
2023/03/31 05:45:50;;;;;;;;;;;;;;;;;;5151955;27;2062;-42
2023/03/31 05:48:18;;;;;;;;;;;;;;;;;;5152851;27;1508;-41
2023/03/31 05:50:45;;;;;;;;;;;;;;;;;;5153198;27;2022;-40
2023/03/31 05:53:12;;;;;;;;;;;;;;;;;;5152821;27;2115;-40
2023/03/31 05:55:39;;;;;;;;;;;;;;;;;;5147705;27;2112;-41
2023/03/31 05:58:08;;;;;;;;;;;;;;;;;;5132288;27;2058;-43
2023/03/31 06:00:35;;;;;;;;;;;;;;;;;;5132191;27;1851;-56
2023/03/31 06:03:02;;;;;;;;;;;;;;;;;;5132272;27;2150;-52
2023/03/31 06:05:32;;;;;;;;;;;;;;;;;;5132019;27;1874;-42
2023/03/31 06:08:00;;;;;;;;;;;;;;;;;;5131823;27;1845;-44
2023/03/31 06:10:28;;;;;;;;;;;;;;;;;;5132210;27;1956;-41
2023/03/31 06:12:56;;;;;;;;;;;;;;;;;;5132085;27;2134;-58
2023/03/31 06:15:23;;;;;;;;;;;;;;;;;;5132109;27;2226;-41
2023/03/31 06:17:51;;;;;;;;;;;;;;;;;;5131750;27;1909;-46
2023/03/31 06:20:18;;;;;;;;;;;;;;;;;;5132039;27;1943;-41
2023/03/31 06:22:54;;;;;;;;;;;;;;;;;;5132172;28;2014;-41
2023/03/31 06:25:21;;;;;;;;;;;;;;;;;;5131888;28;2077;-41
2023/03/31 06:27:48;;;;;;;;;;;;;;;;;;5131945;28;1947;-51
2023/03/31 06:30:15;;;;;;;;;;;;;;;;;;5132008;28;2026;-53
2023/03/31 06:32:43;;;;;;;;;;;;;;;;;;5131798;28;2139;-41
2023/03/31 06:35:10;;;;;;;;;;;;;;;;;;5131894;28;1896;-46
2023/03/31 06:37:37;;;;;;;;;;;;;;;;;;5131622;28;1961;-57
2023/03/31 06:40:04;;;;;;;;;;;;;;;;;;5131556;28;1990;-40
2023/03/31 06:42:32;;;;;;;;;;;;;;;;;;5131754;28;1819;-41
2023/03/31 06:44:59;;;;;;;;;;;;;;;;;;5131498;28;2173;-47
2023/03/31 06:47:26;;;;;;;;;;;;;;;;;;5131622;28;1825;-41
2023/03/31 06:49:54;;;;;;;;;;;;;;;;;;5131728;28;1778;-41
2023/03/31 06:52:21;;;;;;;;;;;;;;;;;;5131886;28;2003;-42
2023/03/31 06:54:48;;;;;;;;;;;;;;;;;;5132007;28;1801;-44
2023/03/31 06:57:15;;;;;;;;;;;;;;;;;;5149458;27;2108;-46
2023/03/31 06:59:42;;;;;;;;;;;;;;;;;;5151658;27;2011;-59
2023/03/31 07:02:10;;;;;;;;;;;;;;;;;;5152197;27;1843;-42
2023/03/31 07:04:37;;;;;;;;;;;;;;;;;;5152512;27;1992;-41
2023/03/31 07:07:04;;;;;;;;;;;;;;;;;;5155944;27;1982;-41
2023/03/31 07:09:31;;;;;;;;;;;;;;;;;;5156326;27;1891;-57
2023/03/31 07:11:58;;;;;;;;;;;;;;;;;;5155967;27;1949;-42
2023/03/31 07:14:25;;;;;;;;;;;;;;;;;;5155990;27;2098;-41
2023/03/31 07:16:53;;;;;;;;;;;;;;;;;;5155929;27;2118;-41
2023/03/31 07:19:20;;;;;;;;;;;;;;;;;;5155805;27;1833;-41
2023/03/31 07:21:47;;;;;;;;;;;;;;;;;;5156145;27;2110;-42
2023/03/31 07:24:14;;;;;;;;;;;;;;;;;;5155991;27;2188;-41
2023/03/31 07:26:42;;;;;;;;;;;;;;;;;;5155824;27;1850;-41
2023/03/31 07:29:09;;;;;;;;;;;;;;;;;;5155558;27;2082;-45
2023/03/31 07:31:36;;;;;;;;;;;;;;;;;;5155963;27;1812;-43
2023/03/31 07:34:03;;;;;;;;;;;;;;;;;;5155700;27;1995;-43
2023/03/31 07:36:30;;;;;;;;;;;;;;;;;;5155608;27;1894;-45
2023/03/31 07:38:58;;;;;;;;;;;;;;;;;;5155497;27;1733;-43
2023/03/31 07:41:25;;;;;;;;;;;;;;;;;;5155600;27;1883;-54
2023/03/31 07:43:52;;;;;;;;;;;;;;;;;;5155777;27;2079;-47
2023/03/31 07:46:22;;;;;;;;;;;;;;;;;;5155664;27;2068;-42
2023/03/31 07:48:49;;;;;;;;;;;;;;;;;;5155424;27;2187;-43
2023/03/31 07:51:18;;;;;;;;;;;;;;;;;;5155812;27;1888;-44
2023/03/31 07:53:45;;;;;;;;;;;;;;;;;;5155562;27;1690;-43
2023/03/31 07:56:12;;;;;;;;;;;;;;;;;;5146487;27;1918;-42
2023/03/31 07:58:40;;;;;;;;;;;;;;;;;;5134614;27;1902;-43
2023/03/31 08:01:07;;;;;;;;;;;;;;;;;;5134648;27;1870;-53
2023/03/31 08:03:35;;;;;;;;;;;;;;;;;;5134658;27;1336;-42
2023/03/31 08:06:02;;;;;;;;;;;;;;;;;;5134326;27;2006;-43
2023/03/31 08:08:29;;;;;;;;;;;;;;;;;;5134055;27;1839;-44
2023/03/31 08:10:57;;;;;;;;;;;;;;;;;;5134412;27;1987;-43
2023/03/31 08:13:24;;;;;;;;;;;;;;;;;;5115888;27;2539;-42
2023/03/31 08:15:52;;;;;;;;;;;;;;;;;;5134127;27;1767;-42
2023/03/31 08:18:19;;;;;;;;;;;;;;;;;;5133055;27;2055;-43
2023/03/31 08:20:48;;;;;;;;;;;;;;;;;;5134291;27;1763;-42
2023/03/31 08:23:15;;;;;;;;;;;;;;;;;;5115674;27;2023;-42
2023/03/31 08:25:43;;;;;;;;;;;;;;;;;;5134181;27;2114;-42
2023/03/31 08:28:12;;;;;;;;;;;;;;;;;;5133589;27;1829;-45
2023/03/31 08:30:40;;;;;;;;;;;;;;;;;;5134019;27;2028;-43
2023/03/31 08:33:08;;;;;;;;;;;;;;;;;;5133807;27;1994;-42
2023/03/31 08:35:35;;;;;;;;;;;;;;;;;;5133575;27;1918;-42
2023/03/31 08:38:02;;;;;;;;;;;;;;;;;;5133591;27;2101;-42
2023/03/31 08:40:31;;;;;;;;;;;;;;;;;;5133763;27;1971;-42
2023/03/31 08:43:01;;;;;;;;;;;;;;;;;;5133651;27;2453;-42
2023/03/31 08:45:28;;;;;;;;;;;;;;;;;;5133489;27;1882;-40
2023/03/31 08:48:01;;;;;;;;;;;;;;;;;;5133163;27;1967;-41
2023/03/31 08:50:32;;;;;;;;;;;;;;;;;;5133560;27;1739;-41
2023/03/31 08:53:11;;;;;;;;;;;;;;;;;;5133357;27;2076;-41
2023/03/31 08:55:46;;;;;;;;;;;;;;;;;;5133366;27;2066;-41
2023/03/31 08:58:32;;;;;;;;;;;;;;;;;;5133097;27;1995;-41
2023/03/31 09:01:15;;;;;;;;;;;;;;;;;;5133415;27;1819;-43
2023/03/31 09:03:52;;;;;;;;;;;;;;;;;;5132977;27;2204;-41
2023/03/31 09:06:40;;;;;;;;;;;;;;;;;;5133297;27;2037;-40
2023/03/31 09:09:14;;;;;;;;;;;;;;;;;;5133126;27;1925;-41
2023/03/31 09:11:41;;;;;;;;;;;;;;;;;;5132943;27;1923;-41
2023/03/31 09:14:09;;;;;;;;;;;;;;;;;;5133114;27;1856;-51
2023/03/31 09:16:50;;;;;;;;;;;;;;;;;;5132750;27;2131;-48
2023/03/31 09:19:30;;;;;;;;;;;;;;;;;;5132989;27;1793;-50
2023/03/31 09:22:00;;;;;;;;;;;;;;;;;;5132840;27;1996;-50
2023/03/31 09:24:33;;;;;;;;;;;;;;;;;;5132628;27;2012;-54
2023/03/31 09:27:01;;;;;;;;;;;;;;;;;;5132671;27;2073;-50
2023/03/31 09:29:33;;;;;;;;;;;;;;;;;;5132296;27;1936;-46
2023/03/31 09:32:06;;;;;;;;;;;;;;;;;;5132555;27;2150;-45
2023/03/31 09:34:36;;;;;;;;;;;;;;;;;;5132668;27;1962;-42
2023/03/31 09:37:04;;;;;;;;;;;;;;;;;;5132507;27;2032;-49
2023/03/31 09:39:31;;;;;;;;;;;;;;;;;;5132618;27;2066;-58
2023/03/31 09:41:59;;;;;;;;;;;;;;;;;;5132342;27;2126;-54
2023/03/31 09:44:29;;;;;;;;;;;;;;;;;;5132463;27;1986;-40
2023/03/31 09:46:59;;;;;;;;;;;;;;;;;;5132314;27;1977;-58
2023/03/31 09:49:27;;;;;;;;;;;;;;;;;;5132300;27;2117;-41
2023/03/31 09:52:17;;;;;;;;;;;;;;;;;;5132418;27;1782;-41
2023/03/31 09:54:51;;;;;;;;;;;;;;;;;;5132100;27;1994;-40
2023/03/31 09:57:23;;;;;;;;;;;;;;;;;;5150582;27;2115;-41
2023/03/31 09:59:51;;;;;;;;;;;;;;;;;;5153004;27;2091;-42
2023/03/31 10:02:27;;;;;;;;;;;;;;;;;;5153061;27;2059;-42
2023/03/31 10:04:55;;;;;;;;;;;;;;;;;;5152572;27;1883;-40
2023/03/31 10:07:22;;;;;;;;;;;;;;;;;;5152909;27;2090;-41
2023/03/31 10:09:50;;;;;;;;;;;;;;;;;;5152948;27;2046;-40
2023/03/31 10:12:23;;;;;;;;;;;;;;;;;;5152832;27;1964;-41
2023/03/31 10:14:51;;;;;;;;;;;;;;;;;;5152887;27;1966;-41
2023/03/31 10:17:21;;;;;;;;;;;;;;;;;;5152712;27;2076;-39
2023/03/31 10:19:53;;;;;;;;;;;;;;;;;;5152783;27;1719;-41
2023/03/31 10:22:20;;;;;;;;;;;;;;;;;;5152506;27;2226;-41
2023/03/31 10:24:48;;;;;;;;;;;;;;;;;;5153056;27;2192;-42
2023/03/31 10:27:36;;;;;;;;;;;;;;;;;;5152902;27;1887;-40
2023/03/31 10:30:08;;;;;;;;;;;;;;;;;;5152376;27;2001;-41
2023/03/31 10:32:41;;;;;;;;;;;;;;;;;;5152523;27;1936;-40
2023/03/31 10:35:21;;;;;;;;;;;;;;;;;;5152559;27;1963;-40
2023/03/31 10:37:50;;;;;;;;;;;;;;;;;;5152502;27;1981;-41
2023/03/31 10:40:17;;;;;;;;;;;;;;;;;;5153288;27;1785;-41
2023/03/31 10:42:45;;;;;;;;;;;;;;;;;;5156512;27;2018;-41
2023/03/31 10:45:25;;;;;;;;;;;;;;;;;;5156712;27;1905;-41
2023/03/31 10:48:02;;;;;;;;;;;;;;;;;;5156311;27;2002;-43
2023/03/31 10:50:31;;;;;;;;;;;;;;;;;;5156603;27;2173;-41
2023/03/31 10:53:00;;;;;;;;;;;;;;;;;;5156190;27;1931;-40
2023/03/31 10:55:32;;;;;;;;;;;;;;;;;;5135345;27;2506;-41
2023/03/31 10:58:15;;;;;;;;;;;;;;;;;;5135631;27;1976;-41
2023/03/31 11:00:52;;;;;;;;;;;;;;;;;;5135631;27;1832;-41
2023/03/31 11:03:31;;;;;;;;;;;;;;;;;;5135742;27;1882;-40
2023/03/31 11:06:08;;;;;;;;;;;;;;;;;;5135490;27;2228;-41
2023/03/31 11:08:35;;;;;;;;;;;;;;;;;;5135498;27;1871;-40
2023/03/31 11:11:20;;;;;;;;;;;;;;;;;;5135464;27;1830;-54
2023/03/31 11:14:20;;;;;;;;;;;;;;;;;;5135322;27;1767;-51
2023/03/31 11:16:50;;;;;;;;;;;;;;;;;;5111978;27;2011;-41
2023/03/31 11:19:33;;;;;;;;;;;;;;;;;;5135001;27;1928;-41
2023/03/31 11:22:08;;;;;;;;;;;;;;;;;;5135137;27;1909;-40
2023/03/31 11:24:59;;;;;;;;;;;;;;;;;;5135189;27;2026;-41
2023/03/31 11:27:30;;;;;;;;;;;;;;;;;;5135241;27;1979;-40
2023/03/31 11:30:19;;;;;;;;;;;;;;;;;;5134925;27;1977;-41
2023/03/31 11:32:56;;;;;;;;;;;;;;;;;;5135290;27;2045;-42
2023/03/31 11:35:43;;;;;;;;;;;;;;;;;;5134769;27;1898;-41
2023/03/31 11:38:16;;;;;;;;;;;;;;;;;;5134707;27;2038;-40
2023/03/31 11:40:46;;;;;;;;;;;;;;;;;;5134429;27;2127;-41
2023/03/31 11:43:21;;;;;;;;;;;;;;;;;;5134615;27;2080;-48
2023/03/31 11:45:51;;;;;;;;;;;;;;;;;;5134390;27;1810;-41
2023/03/31 11:48:25;;;;;;;;;;;;;;;;;;5134880;27;1891;-41
2023/03/31 11:50:53;;;;;;;;;;;;;;;;;;5134833;27;1931;-45
2023/03/31 11:53:25;;;;;;;;;;;;;;;;;;5134654;27;1881;-41
2023/03/31 11:55:54;;;;;;;;;;;;;;;;;;5140524;27;1905;-41
2023/03/31 11:58:51;;;;;;;;;;;;;;;;;;5155073;27;2117;-41
2023/03/31 12:01:27;;;;;;;;;;;;;;;;;;5146040;27;2063;-41
2023/03/31 12:04:05;;;;;;;;;;;;;;;;;;5155089;27;1815;-40
2023/03/31 12:06:38;;;;;;;;;;;;;;;;;;5155154;27;2120;-43
2023/03/31 12:09:19;;;;;;;;;;;;;;;;;;5155000;27;1960;-41
2023/03/31 12:11:56;;;;;;;;;;;;;;;;;;5154931;27;1998;-40
2023/03/31 12:14:32;;;;;;;;;;;;;;;;;;5154777;27;1984;-41
2023/03/31 12:17:03;;;;;;;;;;;;;;;;;;5154829;27;1911;-40
2023/03/31 12:19:39;;;;;;;;;;;;;;;;;;5136263;27;1806;-41
2023/03/31 12:22:25;;;;;;;;;;;;;;;;;;5154570;27;2088;-41
2023/03/31 12:24:53;;;;;;;;;;;;;;;;;;5154742;27;2084;-41
2023/03/31 12:27:23;;;;;;;;;;;;;;;;;;5154539;27;2117;-41
2023/03/31 12:29:54;;;;;;;;;;;;;;;;;;5154299;27;1801;-46
2023/03/31 12:32:22;;;;;;;;;;;;;;;;;;5135632;27;2078;-41
2023/03/31 12:34:55;;;;;;;;;;;;;;;;;;5154869;27;2053;-41
2023/03/31 12:37:28;;;;;;;;;;;;;;;;;;5154186;27;1950;-41
2023/03/31 12:39:55;;;;;;;;;;;;;;;;;;5154717;27;2352;-41
2023/03/31 12:42:41;;;;;;;;;;;;;;;;;;5154299;27;2091;-55
2023/03/31 12:45:22;;;;;;;;;;;;;;;;;;5154129;27;1911;-41
2023/03/31 12:48:01;;;;;;;;;;;;;;;;;;5154523;27;1918;-41
2023/03/31 12:50:28;;;;;;;;;;;;;;;;;;5154056;27;1831;-43
2023/03/31 12:52:58;;;;;;;;;;;;;;;;;;5153937;27;2002;-53
2023/03/31 12:55:46;;;;;;;;;;;;;;;;;;5133465;27;2395;-41
2023/03/31 12:58:26;;;;;;;;;;;;;;;;;;5133331;27;2112;-41
2023/03/31 13:01:13;;;;;;;;;;;;;;;;;;5132732;27;2003;-40
2023/03/31 13:03:59;;;;;;;;;;;;;;;;;;5132917;27;2023;-41
2023/03/31 13:06:26;;;;;;;;;;;;;;;;;;5114567;27;2017;-40
2023/03/31 13:08:55;;;;;;;;;;;;;;;;;;5133344;27;2072;-41
2023/03/31 13:11:35;;;;;;;;;;;;;;;;;;5133232;27;1864;-44
2023/03/31 13:14:14;;;;;;;;;;;;;;;;;;5132229;27;1981;-51
2023/03/31 13:16:44;;;;;;;;;;;;;;;;;;5132730;27;2182;-43
2023/03/31 13:19:26;;;;;;;;;;;;;;;;;;5132719;27;2184;-43
2023/03/31 13:21:54;;;;;;;;;;;;;;;;;;5133129;27;1920;-45
2023/03/31 13:24:22;;;;;;;;;;;;;;;;;;5133005;27;2059;-42
2023/03/31 13:26:50;;;;;;;;;;;;;;;;;;5132979;27;2068;-49
2023/03/31 13:29:21;;;;;;;;;;;;;;;;;;5132506;27;1967;-41
2023/03/31 13:32:01;;;;;;;;;;;;;;;;;;5132862;27;2074;-41
2023/03/31 13:34:31;;;;;;;;;;;;;;;;;;5132299;27;2167;-44
2023/03/31 13:37:17;;;;;;;;;;;;;;;;;;5132708;27;2063;-43
2023/03/31 13:40:03;;;;;;;;;;;;;;;;;;5132203;27;1979;-53
2023/03/31 13:42:52;;;;;;;;;;;;;;;;;;5132197;27;1819;-51
2023/03/31 13:45:32;;;;;;;;;;;;;;;;;;5114179;27;1764;-40
2023/03/31 13:48:02;;;;;;;;;;;;;;;;;;5132127;27;2039;-40
2023/03/31 13:50:38;;;;;;;;;;;;;;;;;;5132362;27;1564;-40
2023/03/31 13:53:24;;;;;;;;;;;;;;;;;;5132331;27;1901;-42
2023/03/31 13:55:51;;;;;;;;;;;;;;;;;;5132209;27;2182;-42
2023/03/31 13:58:25;;;;;;;;;;;;;;;;;;5132023;27;1984;-40
2023/03/31 14:01:09;;;;;;;;;;;;;;;;;;5132018;27;2130;-42
2023/03/31 14:03:46;;;;;;;;;;;;;;;;;;5132118;27;1987;-42
2023/03/31 14:06:13;;;;;;;;;;;;;;;;;;5132001;27;2177;-46
2023/03/31 14:09:00;;;;;;;;;;;;;;;;;;5131982;27;2010;-51
2023/03/31 14:11:31;;;;;;;;;;;;;;;;;;5131706;27;1850;-41
2023/03/31 14:14:02;;;;;;;;;;;;;;;;;;5132036;27;1977;-41
2023/03/31 14:16:36;;;;;;;;;;;;;;;;;;5131017;27;1932;-41
2023/03/31 14:19:16;;;;;;;;;;;;;;;;;;5131640;27;2109;-42
2023/03/31 14:21:47;;;;;;;;;;;;;;;;;;5131908;28;2041;-40
2023/03/31 14:24:14;;;;;;;;;;;;;;;;;;5131745;28;1940;-40
2023/03/31 14:27:04;;;;;;;;;;;;;;;;;;5131771;28;1919;-42
2023/03/31 14:29:53;;;;;;;;;;;;;;;;;;5131619;28;1770;-41
2023/03/31 14:32:27;;;;;;;;;;;;;;;;;;5131877;28;2310;-43
2023/03/31 14:35:02;;;;;;;;;;;;;;;;;;5131720;28;1986;-47
2023/03/31 14:37:30;;;;;;;;;;;;;;;;;;5131663;28;1906;-40
2023/03/31 14:40:00;;;;;;;;;;;;;;;;;;5131701;28;2122;-41
2023/03/31 14:42:38;;;;;;;;;;;;;;;;;;5112634;28;2126;-40
2023/03/31 14:45:14;;;;;;;;;;;;;;;;;;5131396;28;2013;-40
2023/03/31 14:47:41;;;;;;;;;;;;;;;;;;5131474;28;1894;-40
2023/03/31 14:50:14;;;;;;;;;;;;;;;;;;5131428;28;1915;-50
2023/03/31 14:52:54;;;;;;;;;;;;;;;;;;5130045;27;1965;-41
2023/03/31 14:55:23;;;;;;;;;;;;;;;;;;5132946;27;1767;-40
2023/03/31 14:57:55;;;;;;;;;;;;;;;;;;5151905;27;2205;-42
2023/03/31 15:00:27;;;;;;;;;;;;;;;;;;5152439;27;2122;-46
2023/03/31 15:02:56;;;;;;;;;;;;;;;;;;5151939;27;1912;-40
2023/03/31 15:05:26;;;;;;;;;;;;;;;;;;5152524;27;1952;-45
2023/03/31 15:08:02;;;;;;;;;;;;;;;;;;5151191;27;2079;-46
2023/03/31 15:10:32;;;;;;;;;;;;;;;;;;5152338;27;1814;-43
2023/03/31 15:13:01;;;;;;;;;;;;;;;;;;5152225;27;1869;-40
2023/03/31 15:15:28;;;;;;;;;;;;;;;;;;5152255;27;2064;-39
2023/03/31 15:17:55;;;;;;;;;;;;;;;;;;5151767;27;2076;-40
2023/03/31 15:20:28;;;;;;;;;;;;;;;;;;5152314;27;2010;-43
2023/03/31 15:22:55;;;;;;;;;;;;;;;;;;5151983;27;2062;-50
2023/03/31 15:25:26;;;;;;;;;;;;;;;;;;5151878;27;2418;-40
2023/03/31 15:27:57;;;;;;;;;;;;;;;;;;5154724;27;1957;-40
2023/03/31 15:30:25;;;;;;;;;;;;;;;;;;5155748;27;1876;-40
2023/03/31 15:32:52;;;;;;;;;;;;;;;;;;5135889;27;1694;-42
2023/03/31 15:35:27;;;;;;;;;;;;;;;;;;5134801;27;2155;-40
2023/03/31 15:37:56;;;;;;;;;;;;;;;;;;5134749;27;1833;-40
2023/03/31 15:40:26;;;;;;;;;;;;;;;;;;5134606;27;1971;-40
2023/03/31 15:42:55;;;;;;;;;;;;;;;;;;5134393;27;2097;-40
2023/03/31 15:45:46;;;;;;;;;;;;;;;;;;5134486;27;1919;-41
2023/03/31 15:48:18;;;;;;;;;;;;;;;;;;5134546;27;2114;-45
2023/03/31 15:50:46;;;;;;;;;;;;;;;;;;5134592;27;2005;-41
2023/03/31 15:53:28;;;;;;;;;;;;;;;;;;5134379;27;1977;-40
2023/03/31 15:55:58;;;;;;;;;;;;;;;;;;5134216;27;1941;-54
2023/03/31 15:58:45;;;;;;;;;;;;;;;;;;5134477;27;2182;-48
2023/03/31 16:01:14;;;;;;;;;;;;;;;;;;5134230;27;1860;-40
2023/03/31 16:03:44;;;;;;;;;;;;;;;;;;5134548;27;1941;-42
2023/03/31 16:06:14;;;;;;;;;;;;;;;;;;5133822;27;1982;-40
2023/03/31 16:08:45;;;;;;;;;;;;;;;;;;5134260;27;2082;-40
2023/03/31 16:11:14;;;;;;;;;;;;;;;;;;5134130;27;1991;-40
2023/03/31 16:13:43;;;;;;;;;;;;;;;;;;5134203;27;1875;-40
2023/03/31 16:16:12;;;;;;;;;;;;;;;;;;5115425;27;2312;-40
2023/03/31 16:18:41;;;;;;;;;;;;;;;;;;5133689;27;2010;-43
2023/03/31 16:21:09;;;;;;;;;;;;;;;;;;5134153;27;1703;-39
2023/03/31 16:23:39;;;;;;;;;;;;;;;;;;5134075;27;1983;-44
2023/03/31 16:26:07;;;;;;;;;;;;;;;;;;5133763;27;1925;-51
2023/03/31 16:28:35;;;;;;;;;;;;;;;;;;5134085;27;2094;-40
2023/03/31 16:31:04;;;;;;;;;;;;;;;;;;5116018;27;2012;-40
2023/03/31 16:33:51;;;;;;;;;;;;;;;;;;5133896;27;1798;-50
2023/03/31 16:36:18;;;;;;;;;;;;;;;;;;5133815;27;2044;-49
2023/03/31 16:38:45;;;;;;;;;;;;;;;;;;5132408;27;2111;-40
2023/03/31 16:41:14;;;;;;;;;;;;;;;;;;5133490;27;1983;-39
2023/03/31 16:43:43;;;;;;;;;;;;;;;;;;5133766;27;1814;-41
2023/03/31 16:46:11;;;;;;;;;;;;;;;;;;5133187;27;2089;-52
2023/03/31 16:48:38;;;;;;;;;;;;;;;;;;5133558;27;2082;-41
2023/03/31 16:51:05;;;;;;;;;;;;;;;;;;5132321;27;2011;-40
2023/03/31 16:53:34;;;;;;;;;;;;;;;;;;5133315;27;2096;-40
2023/03/31 16:56:06;;;;;;;;;;;;;;;;;;5140713;27;1826;-39
2023/03/31 16:58:34;;;;;;;;;;;;;;;;;;5154092;27;1969;-40
2023/03/31 17:01:02;;;;;;;;;;;;;;;;;;5154176;27;2110;-41
2023/03/31 17:03:30;;;;;;;;;;;;;;;;;;5153567;27;1922;-40
2023/03/31 17:06:02;;;;;;;;;;;;;;;;;;5153708;27;1958;-40
2023/03/31 17:08:31;;;;;;;;;;;;;;;;;;5153527;27;1912;-40
2023/03/31 17:11:02;;;;;;;;;;;;;;;;;;5153783;27;1937;-40
2023/03/31 17:13:31;;;;;;;;;;;;;;;;;;5153635;27;2125;-44
2023/03/31 17:15:58;;;;;;;;;;;;;;;;;;5153614;27;2169;-40
2023/03/31 17:18:41;;;;;;;;;;;;;;;;;;5153479;27;2184;-45
2023/03/31 17:21:10;;;;;;;;;;;;;;;;;;5118069;27;1879;-41
2023/03/31 17:23:38;;;;;;;;;;;;;;;;;;5153606;27;1991;-43
2023/03/31 17:26:05;;;;;;;;;;;;;;;;;;5153475;27;2049;-43
2023/03/31 17:28:33;;;;;;;;;;;;;;;;;;5153275;27;2067;-41
2023/03/31 17:31:00;;;;;;;;;;;;;;;;;;5152861;27;2078;-40
2023/03/31 17:33:27;;;;;;;;;;;;;;;;;;5153353;27;2114;-41